This demonstration page uses our WeatherBlox Daily Observations layout. Learn more.

41.55636, -103.73856

Hourly Observations for May 30, 2017

Temp ( °F °C ) Dew Point ( °F °C ) Humidity (%) Winds ( mph kmh ) Pressure ( in mb ) Visibility ( mi km ) Precip ( " mm )
12:53 am 00:53 Clear 44 6.7 37 2.8 76 76 NNW 3 6 30.1 1019 10 16.0934 0 0
1:53 am 01:53 Clear 41 5 36 2.2 82 82 NW 7 11 30.1 1019 10 16.0934 0 0
2:53 am 02:53 Clear 42 5.6 36 2.2 79 79 NW 3 6 30.09 1019 10 16.0934 0 0
3:53 am 03:53 Clear 41 5 36 2.2 82 82 NNW 6 9 30.09 1019 10 16.0934 0 0
4:53 am 04:53 Clear 40 4.4 35 1.7 83 83 NNW 7 11 30.1 1019 10 16.0934 0 0
5:53 am 05:53 Sunny 42 5.6 37 2.8 82 82 NW 9 15 30.1 1019 10 16.0934 0 0
6:53 am 06:53 Sunny 47 8.3 41 5 80 80 NW 5 7 30.1 1019 10 16.0934 0 0
7:53 am 07:53 Sunny 53 11.7 42 5.6 66 66 WNW 5 7 30.1 1019 10 16.0934 0 0
8:53 am 08:53 Sunny 60 15.6 41 5 50 50 W 6 9 30.1 1019 10 16.0934 0 0
9:53 am 09:53 Sunny 65 18.3 42 5.6 43 43 W 8 13 30.1 1019 10 16.0934 0 0
10:53 am 10:53 Sunny 70 21.1 38 3.3 31 31 VRB 6 9 30.08 1019 10 16.0934 0 0
11:53 am 11:53 Sunny 72 22.2 37 2.8 28 28 VRB 6 9 30.07 1018 10 16.0934 0 0
12:53 pm 12:53 Sunny 74 23.3 38 3.3 27 27 undefined N/A 30.06 1018 10 16.0934 0 0
1:53 pm 13:53 Sunny 77 25 37 2.8 24 24 W 7 11 30.04 1017 10 16.0934 0 0
2:53 pm 14:53 Sunny 77 25 36 2.2 23 23 undefined N/A 30.03 1017 10 16.0934 0 0
3:53 pm 15:53 Mostly Sunny 78 25.6 36 2.2 22 22 NW 9 15 30.01 1016 10 16.0934 0 0
4:53 pm 16:53 Partly Cloudy 78 25.6 36 2.2 22 22 VRB 6 9 30 1016 10 16.0934 0 0
5:53 pm 17:53 Mostly Sunny 75 23.9 38 3.3 26 26 NNE 7 11 29.99 1016 10 16.0934 0 0
6:53 pm 18:53 Sunny 75 23.9 39 3.9 27 27 NE 8 13 29.97 1015 10 16.0934 0 0
7:53 pm 19:53 Sunny 67 19.4 45 7.2 45 45 ENE 7 11 29.99 1016 10 16.0934 0 0
8:53 pm 20:53 Clear 63 17.2 45 7.2 52 52 NE 8 13 30 1016 10 16.0934 0 0
9:53 pm 21:53 Mostly Cloudy 60 15.6 45 7.2 58 58 E 7 11 30.01 1016 10 16.0934 0 0
10:53 pm 22:53 Mostly Cloudy 58 14.4 45 7.2 62 62 ENE 6 9 30.02 1017 10 16.0934 0 0
11:53 pm 23:53 Clear 55 12.8 44 6.7 67 67 ESE 6 9 30.01 1016 10 16.0934 0 0

Powered by AerisWeather